createdAt,value
2018-10-09T00:00:20.630Z,9.73
2018-10-09T00:00:58.439Z,9.87
2018-10-09T00:01:36.483Z,9.60
2018-10-09T00:02:14.418Z,9.50
2018-10-09T00:02:52.320Z,8.70
2018-10-09T00:03:30.125Z,9.13
2018-10-09T00:04:08.077Z,9.40
2018-10-09T00:04:45.950Z,9.50
2018-10-09T00:05:23.787Z,9.33
2018-10-09T00:06:01.705Z,9.83
2018-10-09T00:06:39.632Z,10.28
2018-10-09T00:07:17.626Z,9.57
2018-10-09T00:07:55.573Z,9.80
2018-10-09T00:08:33.434Z,9.63
2018-10-09T00:09:12.772Z,9.60
2018-10-09T00:09:51.899Z,11.83
2018-10-09T00:10:29.784Z,9.53
2018-10-09T00:11:07.691Z,10.47
2018-10-09T00:11:45.636Z,11.37
2018-10-09T00:12:23.652Z,11.30
2018-10-09T00:13:01.525Z,11.00
2018-10-09T00:13:39.373Z,11.50
2018-10-09T00:14:18.442Z,10.70
2018-10-09T00:14:56.279Z,12.03
2018-10-09T00:15:34.980Z,11.60
2018-10-09T00:16:12.888Z,11.90
2018-10-09T00:16:50.775Z,11.77
2018-10-09T00:17:28.577Z,13.07
2018-10-09T00:18:06.631Z,12.60
2018-10-09T00:18:44.508Z,12.30
2018-10-09T00:19:22.349Z,12.10
2018-10-09T00:20:00.316Z,11.73
2018-10-09T00:20:38.219Z,13.57
2018-10-09T00:21:16.242Z,12.40
2018-10-09T00:21:54.124Z,12.60
2018-10-09T00:22:31.933Z,14.80
2018-10-09T00:23:10.453Z,11.60
2018-10-09T00:23:48.361Z,14.50
2018-10-09T00:24:26.196Z,15.67
2018-10-09T00:25:04.048Z,14.30
2018-10-09T00:25:42.444Z,13.33
2018-10-09T00:26:20.327Z,13.10
2018-10-09T00:26:58.932Z,14.80
2018-10-09T00:27:36.793Z,14.90
2018-10-09T00:28:14.645Z,16.40
2018-10-09T00:28:52.659Z,14.90
2018-10-09T00:29:30.466Z,15.60
2018-10-09T00:30:08.389Z,16.57
2018-10-09T00:30:46.480Z,18.10
2018-10-09T00:31:24.454Z,17.27
2018-10-09T00:32:02.464Z,18.37
2018-10-09T00:32:40.409Z,18.10
2018-10-09T00:33:18.292Z,15.73
2018-10-09T00:33:56.269Z,15.10
2018-10-09T00:34:34.319Z,15.70
2018-10-09T00:35:12.133Z,15.00
2018-10-09T00:35:49.959Z,15.20
2018-10-09T00:36:27.916Z,13.80
2018-10-09T00:37:05.897Z,17.27
2018-10-09T00:37:43.880Z,16.57
2018-10-09T00:38:21.818Z,18.40
2018-10-09T00:38:59.742Z,19.33
2018-10-09T00:39:37.855Z,18.40
2018-10-09T00:43:17.029Z,18.27
2018-10-09T00:43:54.922Z,19.60
2018-10-09T00:44:32.865Z,18.77
2018-10-09T00:45:10.983Z,17.20
2018-10-09T00:45:51.091Z,18.30
2018-10-09T00:46:28.997Z,19.13
2018-10-09T00:47:06.878Z,18.07
2018-10-09T00:47:44.730Z,18.77
2018-10-09T00:48:22.573Z,18.20
2018-10-09T00:49:00.536Z,17.40
2018-10-09T00:49:38.399Z,16.47
2018-10-09T00:50:16.749Z,15.88
2018-10-09T00:50:54.847Z,15.57
2018-10-09T00:51:32.689Z,14.87
2018-10-09T00:52:11.053Z,15.50
2018-10-09T00:52:48.942Z,15.30
2018-10-09T00:53:27.089Z,14.73
2018-10-09T00:54:05.022Z,15.87
2018-10-09T00:54:42.957Z,14.70
2018-10-09T00:55:21.145Z,16.60
2018-10-09T00:55:59.213Z,16.37
2018-10-09T00:56:37.186Z,15.50
2018-10-09T00:57:15.169Z,15.73
2018-10-09T00:57:53.093Z,16.13
2018-10-09T00:58:30.909Z,15.67
2018-10-09T00:59:08.962Z,15.90
2018-10-09T00:59:46.844Z,16.40
2018-10-09T01:00:24.671Z,15.57
2018-10-09T01:01:02.680Z,15.87
2018-10-09T01:01:40.586Z,15.63
2018-10-09T01:02:18.594Z,16.10
2018-10-09T01:02:56.521Z,15.77
2018-10-09T01:03:34.520Z,15.57
2018-10-09T01:04:12.490Z,14.60
2018-10-09T01:04:50.422Z,14.33
2018-10-09T01:05:29.529Z,15.17
2018-10-09T01:06:07.421Z,13.30
2018-10-09T01:06:45.308Z,13.50
2018-10-09T01:07:23.515Z,14.60
2018-10-09T01:08:01.461Z,15.10
2018-10-09T01:08:39.623Z,14.70
2018-10-09T01:09:17.482Z,14.87
2018-10-09T01:09:55.748Z,15.10
2018-10-09T01:10:33.643Z,15.90
2018-10-09T01:11:11.759Z,16.70
2018-10-09T01:11:50.519Z,15.80
2018-10-09T01:12:28.651Z,15.60
2018-10-09T01:13:06.510Z,15.00
2018-10-09T01:13:44.378Z,16.10
2018-10-09T01:14:22.301Z,16.00
2018-10-09T01:15:00.999Z,16.10
2018-10-09T01:15:38.877Z,15.97
2018-10-09T01:16:17.457Z,15.05
2018-10-09T01:16:55.347Z,15.70
2018-10-09T01:17:33.361Z,15.80
2018-10-09T01:18:11.204Z,15.33
2018-10-09T01:18:49.105Z,15.17
2018-10-09T01:19:27.073Z,15.90
2018-10-09T01:20:04.919Z,15.90
2018-10-09T01:20:42.822Z,15.80
2018-10-09T01:21:20.773Z,16.10
2018-10-09T01:21:58.865Z,16.70
2018-10-09T01:22:36.808Z,15.03
2018-10-09T01:23:14.660Z,15.60
2018-10-09T01:23:52.494Z,13.67
2018-10-09T01:24:30.421Z,15.47
2018-10-09T01:25:08.350Z,14.73
2018-10-09T01:25:46.217Z,14.93
2018-10-09T01:26:24.045Z,13.88
2018-10-09T01:27:01.921Z,14.70
2018-10-09T01:27:39.912Z,14.17
2018-10-09T01:28:17.715Z,13.63
2018-10-09T01:28:55.603Z,14.97
2018-10-09T01:29:33.449Z,16.20
2018-10-09T01:30:12.208Z,16.00
2018-10-09T01:30:50.062Z,13.80
2018-10-09T01:31:27.988Z,14.90
2018-10-09T01:32:06.769Z,15.77
2018-10-09T01:32:44.637Z,15.40
2018-10-09T01:33:22.539Z,14.30
2018-10-09T01:34:00.453Z,14.50
2018-10-09T01:34:38.412Z,13.57
2018-10-09T01:35:16.311Z,14.87
2018-10-09T01:35:54.676Z,16.60
2018-10-09T01:36:32.511Z,14.90
2018-10-09T01:37:10.485Z,16.17
2018-10-09T01:37:48.420Z,14.03
2018-10-09T01:38:26.468Z,15.60
2018-10-09T01:39:04.391Z,14.20
2018-10-09T01:39:42.263Z,16.13
2018-10-09T01:40:20.092Z,14.67
2018-10-09T01:40:57.911Z,14.80
2018-10-09T01:41:35.792Z,13.90
2018-10-09T01:42:13.672Z,13.20
2018-10-09T01:42:53.114Z,13.90
2018-10-09T01:43:31.801Z,14.03
2018-10-09T01:44:09.802Z,13.20
2018-10-09T01:44:49.452Z,12.50
2018-10-09T01:45:28.048Z,11.83
2018-10-09T01:46:05.916Z,10.27
2018-10-09T01:46:44.023Z,10.97
2018-10-09T01:47:21.897Z,11.23
2018-10-09T01:47:59.925Z,10.70
2018-10-09T01:48:38.567Z,10.27
2018-10-09T01:49:16.428Z,10.10
2018-10-09T01:49:54.408Z,10.53
2018-10-09T01:50:32.400Z,11.10
2018-10-09T01:51:10.391Z,9.30
2018-10-09T01:51:48.233Z,10.17
2018-10-09T01:52:28.098Z,9.70
2018-10-09T01:53:06.094Z,9.63
2018-10-09T01:53:43.922Z,10.10
2018-10-09T01:54:22.048Z,9.37
2018-10-09T01:54:59.854Z,10.33
2018-10-09T01:55:37.899Z,10.13
2018-10-09T01:56:16.999Z,10.85
2018-10-09T01:56:55.052Z,10.90
2018-10-09T01:57:32.973Z,9.53
2018-10-09T01:58:10.881Z,9.37
2018-10-09T01:58:48.716Z,9.37
2018-10-09T01:59:26.561Z,9.60
2018-10-09T02:00:04.448Z,10.10
2018-10-09T02:00:42.237Z,10.70
2018-10-09T02:01:20.222Z,9.00
2018-10-09T02:01:58.057Z,9.10
2018-10-09T02:02:35.958Z,10.20
2018-10-09T02:03:13.855Z,10.30
2018-10-09T02:03:51.752Z,9.30
2018-10-09T02:04:29.684Z,8.93
2018-10-09T02:05:07.859Z,11.17
2018-10-09T02:05:45.783Z,10.03
2018-10-09T02:06:23.745Z,10.27
2018-10-09T02:07:01.585Z,9.40
2018-10-09T02:07:39.558Z,9.77
2018-10-09T02:08:17.348Z,9.43
2018-10-09T02:08:55.254Z,9.43
2018-10-09T02:09:34.009Z,9.90
2018-10-09T02:10:11.920Z,10.10
2018-10-09T02:10:49.874Z,9.37
2018-10-09T02:11:27.738Z,11.43
2018-10-09T02:12:05.706Z,10.03
2018-10-09T02:12:43.530Z,9.77
2018-10-09T02:13:21.330Z,10.00
2018-10-09T02:13:59.264Z,9.87
2018-10-09T02:14:37.075Z,9.33
2018-10-09T02:15:16.033Z,10.17
2018-10-09T02:15:53.929Z,11.70
2018-10-09T02:16:31.752Z,10.53
2018-10-09T02:17:09.765Z,10.17
2018-10-09T02:17:47.653Z,11.40
2018-10-09T02:18:25.483Z,12.30
2018-10-09T02:19:03.485Z,12.93
2018-10-09T02:19:42.461Z,13.60
2018-10-09T02:20:20.421Z,13.60
2018-10-09T02:20:58.417Z,12.73
2018-10-09T02:21:36.446Z,13.70
2018-10-09T02:22:14.386Z,14.03
2018-10-09T02:22:52.359Z,14.90
2018-10-09T02:23:30.286Z,15.03
2018-10-09T02:24:08.251Z,14.23
2018-10-09T02:24:46.127Z,14.23
2018-10-09T02:25:24.012Z,14.70
2018-10-09T02:26:01.894Z,16.20
2018-10-09T02:26:39.791Z,14.20
2018-10-09T02:27:17.835Z,15.20
2018-10-09T02:27:55.732Z,15.20
2018-10-09T02:28:33.651Z,14.50
2018-10-09T02:29:11.772Z,14.77
2018-10-09T02:29:49.774Z,14.83
2018-10-09T02:30:27.759Z,13.00
2018-10-09T02:31:06.372Z,13.57
2018-10-09T02:31:45.241Z,14.40
2018-10-09T02:32:23.033Z,13.30
2018-10-09T02:33:01.164Z,14.23
2018-10-09T02:33:39.063Z,12.63
2018-10-09T02:34:17.023Z,13.47
2018-10-09T02:34:54.871Z,15.17
2018-10-09T02:35:32.937Z,15.53
2018-10-09T02:36:10.945Z,15.13
2018-10-09T02:36:48.895Z,16.20
2018-10-09T02:37:26.823Z,14.33
2018-10-09T02:38:04.743Z,14.83
2018-10-09T02:38:42.691Z,15.30
2018-10-09T02:39:20.577Z,16.30
2018-10-09T02:39:58.354Z,16.10
2018-10-09T02:40:36.609Z,16.50
2018-10-09T02:41:14.515Z,16.53
2018-10-09T02:41:52.412Z,14.37
2018-10-09T02:42:31.520Z,15.40
2018-10-09T02:43:09.437Z,15.70
2018-10-09T02:43:47.458Z,16.73
2018-10-09T02:44:25.370Z,15.67
2018-10-09T02:45:03.340Z,16.37
2018-10-09T02:45:46.854Z,15.17
2018-10-09T02:46:24.771Z,16.40
2018-10-09T02:47:03.866Z,16.47
2018-10-09T02:47:41.649Z,14.63
2018-10-09T02:48:19.517Z,14.90
2018-10-09T02:48:58.557Z,13.87
2018-10-09T02:49:36.314Z,14.23
2018-10-09T02:50:14.198Z,14.30
2018-10-09T02:50:52.135Z,13.93
2018-10-09T02:51:29.999Z,13.33
2018-10-09T02:52:07.889Z,13.70
2018-10-09T02:52:46.713Z,14.00
2018-10-09T02:53:24.661Z,13.60
2018-10-09T02:54:02.494Z,13.37
2018-10-09T02:54:41.276Z,13.23
2018-10-09T02:55:19.198Z,13.73
2018-10-09T02:55:57.006Z,12.40
2018-10-09T02:56:34.869Z,14.13
2018-10-09T02:57:12.733Z,13.40
2018-10-09T02:57:50.722Z,12.70
2018-10-09T02:58:28.587Z,12.70
2018-10-09T02:59:06.559Z,12.93
2018-10-09T02:59:44.483Z,14.30
2018-10-09T03:00:23.632Z,12.20
2018-10-09T03:01:01.577Z,13.27
2018-10-09T03:01:39.539Z,13.00
2018-10-09T03:02:17.461Z,12.20
2018-10-09T03:02:55.312Z,11.37
2018-10-09T03:03:33.176Z,13.10
2018-10-09T03:04:11.191Z,13.40
2018-10-09T03:04:49.402Z,12.53
2018-10-09T03:05:27.271Z,13.67
2018-10-09T03:06:05.736Z,13.07
2018-10-09T03:06:43.620Z,11.57
2018-10-09T03:07:25.600Z,12.13
2018-10-09T03:08:03.427Z,12.53
2018-10-09T03:08:41.333Z,10.57
2018-10-09T03:09:19.204Z,13.23
2018-10-09T03:09:57.133Z,10.87
2018-10-09T03:10:35.075Z,10.20
2018-10-09T03:11:13.020Z,10.17
2018-10-09T03:11:50.924Z,9.10
2018-10-09T03:12:28.823Z,10.20
2018-10-09T03:13:06.730Z,10.30
2018-10-09T03:13:44.507Z,8.90
2018-10-09T03:14:22.516Z,9.83
2018-10-09T03:15:00.368Z,8.40
2018-10-09T03:15:38.231Z,8.70
2018-10-09T03:16:17.029Z,9.05
2018-10-09T03:16:55.131Z,9.53
2018-10-09T03:17:33.064Z,9.27
2018-10-09T03:18:10.983Z,7.90
2018-10-09T03:18:48.789Z,8.37
2018-10-09T03:19:26.971Z,9.13
2018-10-09T03:20:04.893Z,8.47
2018-10-09T03:20:42.813Z,7.83
2018-10-09T03:21:20.692Z,7.73
2018-10-09T03:21:58.565Z,7.80
2018-10-09T03:22:36.439Z,8.60
2018-10-09T03:23:14.259Z,7.87
2018-10-09T03:23:52.312Z,8.70
2018-10-09T03:24:30.222Z,7.90
2018-10-09T03:25:08.084Z,8.03
2018-10-09T03:25:46.926Z,7.73
2018-10-09T03:26:24.783Z,7.63
2018-10-09T03:27:02.587Z,7.03
2018-10-09T03:27:41.613Z,7.17
2018-10-09T03:28:19.541Z,7.17
2018-10-09T03:28:57.528Z,7.77
2018-10-09T03:29:36.318Z,8.40
2018-10-09T03:30:14.849Z,7.90
2018-10-09T03:30:52.790Z,7.17
2018-10-09T03:31:30.746Z,6.33
2018-10-09T03:32:08.610Z,7.57
2018-10-09T03:32:46.454Z,6.80
2018-10-09T03:33:25.178Z,6.80
2018-10-09T03:34:03.958Z,6.43
2018-10-09T03:34:44.763Z,7.53
2018-10-09T03:35:22.534Z,7.47
2018-10-09T03:36:00.350Z,7.87
2018-10-09T03:36:38.167Z,7.83
2018-10-09T03:37:16.000Z,7.50
2018-10-09T03:37:55.316Z,6.50
2018-10-09T03:38:33.191Z,6.87
2018-10-09T03:39:12.139Z,6.77
2018-10-09T03:39:50.089Z,6.43
2018-10-09T03:40:28.154Z,7.70
2018-10-09T03:41:06.046Z,6.57
2018-10-09T03:41:43.925Z,7.10
2018-10-09T03:42:21.891Z,7.17
2018-10-09T03:42:59.812Z,6.83
2018-10-09T03:43:37.713Z,6.57
2018-10-09T03:44:16.748Z,7.40
2018-10-09T03:44:54.611Z,6.73
2018-10-09T03:45:33.348Z,6.73
2018-10-09T03:46:11.307Z,7.33
2018-10-09T03:46:49.193Z,6.30
2018-10-09T03:47:27.092Z,5.33
2018-10-09T03:48:05.019Z,5.87
2018-10-09T03:48:42.906Z,5.70
2018-10-09T03:49:20.771Z,6.40
2018-10-09T03:49:58.626Z,6.30
2018-10-09T03:50:37.136Z,6.10
2018-10-09T03:51:15.231Z,6.17
2018-10-09T03:51:53.031Z,5.90
2018-10-09T03:52:30.820Z,7.03
2018-10-09T03:53:08.693Z,5.77
2018-10-09T03:53:46.488Z,6.20
2018-10-09T03:54:24.363Z,7.30
2018-10-09T03:55:02.529Z,6.13
2018-10-09T03:55:41.267Z,7.33
2018-10-09T03:56:19.065Z,7.00
2018-10-09T03:56:56.936Z,7.37
2018-10-09T03:57:34.726Z,7.40
2018-10-09T03:58:12.602Z,7.60
2018-10-09T03:58:53.363Z,6.90
2018-10-09T03:59:31.280Z,5.80
2018-10-09T04:00:09.136Z,5.50
2018-10-09T04:00:47.145Z,6.40
2018-10-09T04:01:24.983Z,7.20
2018-10-09T04:02:02.859Z,7.10
2018-10-09T04:02:40.631Z,6.40
2018-10-09T04:03:18.423Z,5.73
2018-10-09T04:03:56.367Z,6.03
2018-10-09T04:04:35.271Z,6.00
2018-10-09T04:05:13.060Z,6.67
2018-10-09T04:05:50.923Z,7.00
2018-10-09T04:06:28.923Z,6.60
2018-10-09T04:07:06.827Z,7.17
2018-10-09T04:07:44.628Z,7.43
2018-10-09T04:08:22.514Z,7.60
2018-10-09T04:09:00.452Z,6.60
2018-10-09T04:09:38.533Z,6.43
2018-10-09T04:10:16.595Z,6.43
2018-10-09T04:10:54.527Z,6.80
2018-10-09T04:11:32.360Z,6.03
2018-10-09T04:12:10.252Z,6.63
2018-10-09T04:12:48.110Z,6.30
2018-10-09T04:13:26.056Z,6.27
2018-10-09T04:14:03.959Z,6.97
2018-10-09T04:14:41.840Z,7.10
2018-10-09T04:15:19.788Z,7.87
2018-10-09T04:15:57.704Z,6.60
2018-10-09T04:16:35.573Z,6.70
2018-10-09T04:17:13.359Z,5.63
2018-10-09T04:17:51.308Z,6.90
2018-10-09T04:18:29.152Z,6.70
2018-10-09T04:19:07.027Z,9.93
2018-10-09T04:19:44.936Z,9.23
2018-10-09T04:20:22.777Z,9.40
2018-10-09T04:21:00.784Z,7.50
2018-10-09T04:21:38.986Z,7.43
2018-10-09T04:22:20.911Z,7.53
2018-10-09T04:22:58.739Z,6.80
2018-10-09T04:23:36.616Z,6.63
2018-10-09T04:24:14.543Z,7.53
2018-10-09T04:24:52.780Z,7.43
2018-10-09T04:25:30.657Z,7.90
2018-10-09T04:26:08.562Z,7.90
2018-10-09T04:26:46.506Z,8.53
2018-10-09T04:27:24.700Z,9.33
2018-10-09T04:28:02.545Z,7.10
2018-10-09T04:28:40.957Z,8.13
2018-10-09T04:29:18.898Z,7.17
2018-10-09T04:29:56.733Z,6.23
2018-10-09T04:30:34.665Z,6.57
2018-10-09T04:31:12.744Z,6.73
2018-10-09T04:31:56.742Z,6.93
2018-10-09T04:32:34.751Z,6.20
2018-10-09T04:33:12.596Z,7.47
2018-10-09T04:33:50.625Z,6.50
2018-10-09T04:34:28.501Z,6.67
2018-10-09T04:35:06.340Z,6.03
2018-10-09T04:35:44.257Z,7.17
2018-10-09T04:36:22.186Z,8.70
2018-10-09T04:37:01.135Z,9.90
2018-10-09T04:37:39.126Z,9.90
2018-10-09T04:38:17.077Z,10.10
2018-10-09T04:38:55.060Z,9.07
2018-10-09T04:39:33.078Z,9.30
2018-10-09T04:40:11.086Z,8.60
2018-10-09T04:40:48.928Z,9.27
2018-10-09T04:41:26.725Z,8.97
2018-10-09T04:42:04.521Z,8.57
2018-10-09T04:42:42.354Z,8.50
2018-10-09T04:43:20.286Z,8.40
2018-10-09T04:43:58.098Z,9.10
2018-10-09T04:44:36.423Z,8.43
2018-10-09T04:45:14.247Z,9.70
2018-10-09T04:45:52.547Z,9.13
2018-10-09T04:46:30.451Z,9.00
2018-10-09T04:47:08.427Z,8.27
2018-10-09T04:47:46.258Z,8.87
2018-10-09T04:48:24.253Z,9.80
2018-10-09T04:49:02.272Z,8.87
2018-10-09T04:49:40.203Z,9.93
2018-10-09T04:50:18.142Z,9.10
2018-10-09T04:50:56.099Z,8.67
2018-10-09T04:51:34.580Z,9.67
2018-10-09T04:52:12.467Z,10.30
2018-10-09T04:52:50.341Z,9.17
2018-10-09T04:53:28.263Z,10.70
2018-10-09T04:54:06.163Z,9.90
2018-10-09T04:54:44.120Z,8.73
2018-10-09T04:55:21.969Z,8.87
2018-10-09T04:55:59.905Z,9.23
2018-10-09T04:56:37.807Z,9.07
2018-10-09T04:57:16.020Z,8.37
2018-10-09T04:57:55.002Z,8.20
2018-10-09T04:58:32.913Z,7.80
2018-10-09T04:59:10.801Z,7.50
2018-10-09T04:59:48.546Z,8.40
2018-10-09T05:00:26.512Z,8.43
2018-10-09T05:01:04.279Z,7.60
2018-10-09T05:01:42.366Z,7.63
2018-10-09T05:02:20.476Z,7.80
2018-10-09T05:02:58.578Z,8.13
2018-10-09T05:03:36.419Z,7.97
2018-10-09T05:04:14.369Z,8.77
2018-10-09T05:04:52.250Z,9.10
2018-10-09T05:05:31.055Z,8.77
2018-10-09T05:06:09.492Z,8.70
2018-10-09T05:06:47.452Z,9.80
2018-10-09T05:07:25.255Z,7.87
2018-10-09T05:08:03.072Z,7.00
2018-10-09T05:08:40.957Z,6.90
2018-10-09T05:09:20.473Z,6.60
2018-10-09T05:09:59.590Z,6.37
2018-10-09T05:10:37.586Z,6.23
2018-10-09T05:11:15.459Z,7.27
2018-10-09T05:11:53.348Z,6.90
2018-10-09T05:12:31.153Z,6.00
2018-10-09T05:13:09.171Z,6.40
2018-10-09T05:13:47.030Z,6.73
2018-10-09T05:14:25.105Z,6.20
2018-10-09T05:15:02.929Z,6.20
2018-10-09T05:15:40.802Z,6.60
2018-10-09T05:16:18.729Z,6.40
2018-10-09T05:16:57.516Z,6.63
2018-10-09T05:17:35.446Z,6.60
2018-10-09T05:18:13.327Z,7.30
2018-10-09T05:18:51.220Z,6.93
2018-10-09T05:19:29.078Z,7.27
2018-10-09T05:20:07.408Z,6.80
2018-10-09T05:20:45.407Z,7.27
2018-10-09T05:21:23.311Z,6.53
2018-10-09T05:22:01.202Z,7.50
2018-10-09T05:22:39.086Z,6.47
2018-10-09T05:23:16.910Z,6.20
2018-10-09T05:23:55.801Z,6.20
2018-10-09T05:24:35.031Z,6.37
2018-10-09T05:25:13.121Z,6.27
2018-10-09T05:25:50.977Z,5.97
2018-10-09T05:26:28.932Z,5.30
2018-10-09T05:27:06.858Z,5.70
2018-10-09T05:27:44.695Z,5.60
2018-10-09T05:28:22.513Z,5.80
2018-10-09T05:29:00.373Z,5.63
2018-10-09T05:29:39.214Z,5.67
2018-10-09T05:30:17.003Z,5.50
2018-10-09T05:30:55.128Z,6.07
2018-10-09T05:31:32.963Z,6.30
2018-10-09T05:32:10.989Z,6.00
2018-10-09T05:32:48.767Z,6.30
2018-10-09T05:33:26.614Z,5.53
2018-10-09T05:34:04.537Z,6.20
2018-10-09T05:34:42.444Z,6.80
2018-10-09T05:35:20.319Z,5.60
2018-10-09T05:35:59.236Z,5.90
2018-10-09T05:36:37.048Z,5.70
2018-10-09T05:37:14.899Z,6.67
2018-10-09T05:37:53.126Z,5.73
2018-10-09T05:38:31.006Z,6.30
2018-10-09T05:39:09.968Z,6.00
2018-10-09T05:39:47.851Z,6.30
2018-10-09T05:40:25.780Z,5.70
2018-10-09T05:41:03.670Z,5.70
2018-10-09T05:41:41.627Z,5.80
2018-10-09T05:42:19.577Z,5.67
2018-10-09T05:42:57.492Z,5.80
2018-10-09T05:43:35.403Z,6.70
2018-10-09T05:44:13.340Z,6.40
2018-10-09T05:44:51.338Z,6.03
2018-10-09T05:45:29.713Z,6.00
2018-10-09T05:46:07.560Z,6.80
2018-10-09T05:46:45.447Z,6.37
2018-10-09T05:47:23.343Z,6.57
2018-10-09T05:48:01.172Z,6.10
2018-10-09T05:48:38.944Z,6.90
2018-10-09T05:49:16.841Z,6.60
2018-10-09T05:49:54.975Z,7.27
2018-10-09T05:50:32.997Z,6.07
2018-10-09T05:51:11.364Z,6.87
2018-10-09T05:51:49.228Z,6.47
2018-10-09T05:52:27.183Z,6.70
2018-10-09T05:53:05.059Z,6.60
2018-10-09T05:53:43.633Z,6.37
2018-10-09T05:54:21.569Z,5.97
2018-10-09T05:54:59.492Z,6.50
2018-10-09T05:55:38.076Z,6.17
2018-10-09T05:56:16.316Z,6.17
2018-10-09T05:56:54.358Z,7.10
2018-10-09T05:57:32.299Z,6.20
2018-10-09T05:58:10.468Z,6.10
2018-10-09T05:58:48.438Z,7.70
2018-10-09T05:59:27.207Z,6.30
2018-10-09T06:00:05.102Z,7.57
2018-10-09T06:00:43.099Z,7.27
2018-10-09T06:01:22.023Z,6.50
2018-10-09T06:01:59.965Z,6.40
2018-10-09T06:02:37.902Z,6.17
2018-10-09T06:03:15.813Z,5.90
2018-10-09T06:03:53.653Z,5.47
2018-10-09T06:04:31.570Z,6.03
2018-10-09T06:05:09.456Z,5.50
2018-10-09T06:05:48.559Z,5.73
2018-10-09T06:07:09.307Z,7.00
2018-10-09T06:07:47.296Z,5.90
2018-10-09T06:08:25.259Z,5.80
2018-10-09T06:09:03.247Z,5.80
2018-10-09T06:09:41.660Z,6.50
2018-10-09T06:10:19.444Z,6.30
2018-10-09T06:10:57.325Z,5.70
2018-10-09T06:11:35.190Z,5.40
2018-10-09T06:12:13.125Z,6.37
2018-10-09T06:12:50.990Z,5.73
2018-10-09T06:13:28.792Z,6.47
2018-10-09T06:14:06.899Z,6.33
2018-10-09T06:14:44.904Z,6.00
2018-10-09T06:15:22.899Z,6.10
2018-10-09T06:16:00.765Z,5.57
2018-10-09T06:16:38.727Z,6.13
2018-10-09T06:17:16.620Z,6.13
2018-10-09T06:17:54.429Z,5.87
2018-10-09T06:18:32.198Z,5.57
2018-10-09T06:19:10.097Z,5.83
2018-10-09T06:19:47.954Z,6.97
2018-10-09T06:20:26.707Z,6.33
2018-10-09T06:21:04.652Z,6.20
2018-10-09T06:21:42.636Z,6.40
2018-10-09T06:22:20.562Z,7.00
2018-10-09T06:22:58.491Z,6.93
2018-10-09T06:23:37.036Z,6.87
2018-10-09T06:24:15.009Z,7.00
2018-10-09T06:24:54.065Z,7.07
2018-10-09T06:25:31.967Z,7.07
2018-10-09T06:26:09.767Z,6.63
2018-10-09T06:26:47.733Z,7.80
2018-10-09T06:27:25.601Z,7.20
2018-10-09T06:28:03.428Z,6.50
2018-10-09T06:28:41.263Z,7.03
2018-10-09T06:29:19.145Z,7.23
2018-10-09T06:29:57.079Z,6.70
2018-10-09T06:30:36.170Z,7.70
2018-10-09T06:31:14.201Z,7.50
2018-10-09T06:31:52.051Z,8.27
2018-10-09T06:32:31.167Z,8.30
2018-10-09T06:33:09.202Z,7.70
2018-10-09T06:33:52.418Z,7.03
2018-10-09T06:34:30.247Z,6.73
2018-10-09T06:35:08.217Z,6.70
2018-10-09T06:35:46.077Z,6.13
2018-10-09T06:36:24.010Z,6.87
2018-10-09T06:37:01.962Z,6.30
2018-10-09T06:37:40.670Z,7.00
2018-10-09T06:38:18.846Z,7.23
2018-10-09T06:38:56.741Z,6.70
2018-10-09T06:39:34.601Z,6.57
2018-10-09T06:40:12.463Z,6.50
2018-10-09T06:40:50.299Z,6.93
2018-10-09T06:41:28.400Z,6.13
2018-10-09T06:42:06.395Z,6.70
2018-10-09T06:42:44.270Z,6.70
2018-10-09T06:43:22.391Z,6.50
2018-10-09T06:44:00.335Z,6.03
2018-10-09T06:44:38.249Z,6.50
2018-10-09T06:45:16.103Z,7.10
2018-10-09T06:45:53.904Z,6.60
2018-10-09T06:46:31.945Z,6.30
2018-10-09T06:47:10.071Z,6.40
2018-10-09T06:47:47.913Z,6.63
2018-10-09T06:48:25.920Z,7.17
2018-10-09T06:49:03.764Z,7.40
2018-10-09T06:49:41.739Z,7.17
2018-10-09T06:50:19.549Z,6.37
2018-10-09T06:50:57.478Z,6.93
2018-10-09T06:51:35.349Z,6.60
2018-10-09T06:52:14.810Z,7.00
2018-10-09T06:52:52.736Z,6.67
2018-10-09T06:53:30.622Z,6.13
2018-10-09T06:54:08.578Z,6.83
2018-10-09T06:54:46.615Z,6.60
2018-10-09T06:55:24.608Z,6.23
2018-10-09T06:56:02.604Z,7.00
2018-10-09T06:56:40.396Z,6.63
2018-10-09T06:57:18.840Z,7.23
2018-10-09T06:57:56.899Z,6.33
2018-10-09T06:58:35.587Z,5.83
2018-10-09T06:59:13.430Z,6.50
2018-10-09T06:59:51.280Z,6.70
2018-10-09T07:00:29.383Z,7.40
2018-10-09T07:01:07.248Z,6.53
2018-10-09T07:01:45.176Z,7.20
2018-10-09T07:02:27.450Z,7.00
2018-10-09T07:03:06.330Z,7.20
2018-10-09T07:03:44.281Z,5.83
2018-10-09T07:04:22.135Z,5.13
2018-10-09T07:04:59.968Z,5.53
2018-10-09T07:05:37.836Z,5.20
2018-10-09T07:06:16.445Z,5.33
2018-10-09T07:06:54.364Z,5.33
2018-10-09T07:07:32.490Z,5.50
2018-10-09T07:08:10.570Z,5.17
2018-10-09T07:08:48.476Z,5.47
2018-10-09T07:09:26.376Z,5.57
2018-10-09T07:10:04.278Z,5.10
2018-10-09T07:10:41.994Z,5.13
2018-10-09T07:11:20.057Z,5.87
2018-10-09T07:11:58.235Z,5.40
2018-10-09T07:12:36.018Z,6.00
2018-10-09T07:13:13.962Z,5.00
2018-10-09T07:13:54.105Z,5.70
2018-10-09T07:14:31.928Z,5.80
2018-10-09T07:15:09.869Z,5.17
2018-10-09T07:15:48.142Z,5.33
2018-10-09T07:16:26.764Z,6.20
2018-10-09T07:17:04.604Z,6.20
2018-10-09T07:17:42.616Z,5.27
2018-10-09T07:18:20.484Z,5.53
2018-10-09T07:18:58.280Z,5.40
2018-10-09T07:19:36.221Z,5.30
2018-10-09T07:20:15.123Z,5.53
2018-10-09T07:21:48.734Z,4.83
2018-10-09T07:22:26.700Z,4.90
2018-10-09T07:23:04.647Z,4.83
2018-10-09T07:23:42.489Z,4.87
2018-10-09T07:24:21.511Z,5.33
2018-10-09T07:24:59.376Z,4.77
2018-10-09T07:25:37.315Z,4.53
2018-10-09T07:26:15.178Z,4.30
2018-10-09T07:26:53.091Z,4.60
2018-10-09T07:27:30.926Z,4.97
2018-10-09T07:28:08.841Z,5.27
2018-10-09T07:28:46.808Z,4.70
2018-10-09T07:29:24.622Z,4.40
2018-10-09T07:30:02.619Z,5.00
2018-10-09T07:30:40.461Z,5.07
2018-10-09T07:31:18.384Z,4.73
2018-10-09T07:31:56.204Z,5.30
2018-10-09T07:32:34.024Z,5.00
2018-10-09T07:33:11.840Z,4.50
2018-10-09T07:33:49.717Z,5.03
2018-10-09T07:34:27.544Z,5.23
2018-10-09T07:35:05.444Z,5.00
2018-10-09T07:35:43.439Z,4.80
2018-10-09T07:36:21.504Z,4.73
2018-10-09T07:36:59.427Z,4.73
2018-10-09T07:37:37.290Z,5.07
2018-10-09T07:38:15.114Z,4.60
2018-10-09T07:38:52.926Z,4.90
2018-10-09T07:39:30.825Z,4.87
2018-10-09T07:40:08.776Z,4.87
2018-10-09T07:40:46.754Z,5.17
2018-10-09T07:41:24.581Z,5.20
2018-10-09T07:42:02.389Z,5.47
2018-10-09T07:42:40.253Z,4.60
2018-10-09T07:43:18.152Z,5.70
2018-10-09T07:43:56.169Z,5.33
2018-10-09T07:44:34.187Z,5.80
2018-10-09T07:45:12.046Z,5.17
2018-10-09T07:45:49.976Z,5.60
2018-10-09T07:46:28.236Z,4.83
2018-10-09T07:47:07.393Z,5.03
2018-10-09T07:47:46.247Z,5.40
2018-10-09T07:48:24.269Z,5.00
2018-10-09T07:49:02.334Z,4.53
2018-10-09T07:49:40.356Z,5.20
2018-10-09T07:50:18.269Z,4.90
2018-10-09T07:50:56.408Z,5.50
2018-10-09T07:51:34.307Z,5.47
2018-10-09T07:52:12.391Z,5.70
2018-10-09T07:52:50.488Z,5.60
2018-10-09T07:53:28.488Z,5.90
2018-10-09T07:54:06.270Z,5.33
2018-10-09T07:54:44.046Z,5.23
2018-10-09T07:55:21.848Z,6.10
2018-10-09T07:55:59.837Z,6.10
2018-10-09T07:56:37.672Z,6.10
2018-10-09T07:57:15.640Z,4.90
2018-10-09T07:57:53.617Z,5.33
2018-10-09T07:58:31.500Z,5.50
2018-10-09T07:59:09.336Z,6.67
2018-10-09T07:59:47.144Z,5.50
2018-10-09T08:00:25.531Z,6.77
2018-10-09T08:01:03.401Z,6.23
2018-10-09T08:01:41.157Z,6.70
2018-10-09T08:02:18.968Z,6.03
2018-10-09T08:02:56.837Z,5.50
2018-10-09T08:03:34.708Z,6.40
2018-10-09T08:04:13.693Z,5.80
2018-10-09T08:04:51.566Z,5.57
2018-10-09T08:05:29.656Z,6.27
2018-10-09T08:06:07.841Z,5.93
2018-10-09T08:06:46.261Z,6.70
2018-10-09T08:07:24.245Z,5.90
2018-10-09T08:08:02.106Z,5.27
2018-10-09T08:08:40.047Z,5.37
2018-10-09T08:09:17.950Z,5.60
2018-10-09T08:09:55.939Z,5.73
2018-10-09T08:10:34.033Z,5.50
2018-10-09T08:11:12.059Z,5.27
2018-10-09T08:11:50.007Z,5.33
2018-10-09T08:12:29.131Z,5.67
2018-10-09T08:13:06.958Z,6.13
2018-10-09T08:13:44.798Z,6.20
2018-10-09T08:14:22.608Z,5.50
2018-10-09T08:15:00.477Z,5.63
2018-10-09T08:15:39.142Z,6.10
2018-10-09T08:16:17.142Z,5.40
2018-10-09T08:16:56.027Z,5.70
2018-10-09T08:17:33.873Z,6.40
2018-10-09T08:18:11.781Z,5.77
2018-10-09T08:18:49.744Z,5.77
2018-10-09T08:19:27.627Z,6.13
2018-10-09T08:20:06.236Z,5.83
2018-10-09T08:20:44.160Z,5.50
2018-10-09T08:21:22.068Z,5.57
2018-10-09T08:22:00.056Z,5.80
2018-10-09T08:22:37.945Z,5.80
2018-10-09T08:24:19.489Z,7.93
2018-10-09T08:24:57.473Z,6.93
2018-10-09T08:25:35.375Z,6.50
2018-10-09T08:26:13.112Z,6.20
2018-10-09T08:26:52.001Z,6.70